Latest Weather Observations for Lajamanu

IDD60801

Issued at 10:05 am CST Saturday 26 July 2014 (issued every 30 minutes, with the page automatically refreshed every 10 minutes)

About weather observations | Map of weather stations | Latest weather observations for NT | Other Formats
Station Details ID: 014829 Name: LAJAMANU AIRPORT Lat: -18.33 Lon: 130.64 Height: 315.6 m
Data from the previous 72 hours. | See also: Recent months at Lajamanu
Date/Time
CST
Temp
°C
App
Temp
°C
Dew
Point
Rel
Hum
%
Delta-T
°C
Wind Press
QNH
hPa
Press
MSL
hPa
Rain
since 9 am
mm
Dir
 
Spd
km/h
Gust
km/h
Spd
kts
Gust
kts
26/10:00am 21.3 16.2 3.0 30 8.8 ESE 19 24 10 13 1022.3 - 0.0
26/09:30am 19.9 15.2 3.2 33 8.0 ESE 17 26 9 14 1022.4 1021.7 0.0
26/09:00am 17.7 13.2 4.3 41 6.4 SE 17 22 9 12 1022.2 1021.5 0.0
26/08:30am 15.1 12.2 4.5 49 5.0 SSE 9 13 5 7 1022.0 1021.3 0.0
26/08:00am 12.3 9.8 5.0 61 3.4 S 7 11 4 6 1021.6 - 0.0
26/07:30am 10.0 7.6 4.4 68 2.5 SSW 6 7 3 4 1021.1 1020.4 0.0
26/07:00am 9.9 8.5 3.6 65 2.8 CALM 0 6 0 3 1020.8 - 0.0
26/06:30am 10.4 8.3 3.7 63 3.0 S 4 7 2 4 1020.5 1019.8 0.0
26/06:00am 10.3 7.9 4.2 66 2.8 S 6 9 3 5 1020.3 1019.5 0.0
26/05:30am 10.1 7.5 3.4 63 3.0 SW 6 7 3 4 1020.1 1019.3 0.0
26/05:00am 10.3 7.6 3.8 64 2.9 SSW 7 11 4 6 1020.0 - 0.0
26/04:30am 11.2 9.8 3.3 58 3.5 CALM 0 0 0 0 1020.0 1019.2 0.0
26/04:00am 11.8 9.2 3.3 56 3.8 SSE 6 7 3 4 1019.8 - 0.0
26/03:30am 13.6 11.1 4.5 54 4.2 SSE 7 13 4 7 1019.6 1018.8 0.0
26/03:00am 12.9 10.4 3.6 53 4.2 S 6 9 3 5 1019.6 1018.8 0.0
26/02:30am 12.9 10.4 3.8 54 4.2 SW 6 11 3 6 1019.8 1019.0 0.0
26/02:00am 13.4 11.1 4.6 55 4.1 SW 6 9 3 5 1019.9 - 0.0
26/01:30am 12.7 10.9 3.6 54 4.1 SW 2 9 1 5 1020.0 1019.2 0.0
26/01:00am 12.7 9.8 2.8 51 4.4 S 7 9 4 5 1020.3 - 0.0
26/12:30am 14.5 12.0 3.6 48 5.0 SE 6 15 3 8 1020.3 1019.5 0.0
26/12:00am 15.3 12.9 4.1 47 5.3 SE 6 9 3 5 1020.4 1019.7 0.0
 
Date/Time
CST
Temp
°C
App
Temp
°C
Dew
Point
Rel
Hum
%
Delta-T
°C
Wind Press
QNH
hPa
Press
MSL
hPa
Rain
since 9 am
mm
Dir
 
Spd
km/h
Gust
km/h
Spd
kts
Gust
kts
25/11:30pm 14.4 11.7 2.6 45 5.3 SSE 6 7 3 4 1020.4 1019.7 0.0
25/11:00pm 16.6 13.8 3.0 40 6.3 ESE 7 11 4 6 1020.4 - 0.0
25/10:30pm 17.7 14.9 3.2 38 6.8 SSE 7 11 4 6 1020.3 1019.5 0.0
25/10:00pm 18.0 14.9 3.5 38 6.9 SSE 9 11 5 6 1020.2 - 0.0
25/09:30pm 17.0 14.2 3.3 40 6.4 S 7 11 4 6 1019.9 1019.1 0.0
25/09:00pm 18.4 15.8 3.1 36 7.2 SSE 6 9 3 5 1019.6 1018.8 0.0
25/08:30pm 18.1 15.0 3.6 38 6.9 S 9 11 5 6 1019.3 1018.6 0.0
25/08:00pm 18.6 15.2 2.0 33 7.7 SE 9 9 5 5 1018.9 - 0.0
25/07:30pm 20.4 17.2 3.2 32 8.2 SSE 9 11 5 6 1018.4 1017.7 0.0
25/07:00pm 21.4 18.6 3.1 30 8.8 SSE 7 9 4 5 1018.1 - 0.0
25/06:30pm 23.8 20.9 2.6 25 10.3 SSE 7 9 4 5 1017.9 1017.2 0.0
25/06:00pm 26.5 22.3 1.7 20 12.1 SE 13 17 7 9 1017.4 1016.6 0.0
25/05:30pm 27.5 23.2 1.1 18 12.8 SE 13 17 7 9 1017.0 1016.2 0.0
25/05:00pm 28.3 23.7 1.7 18 13.1 SSE 15 20 8 11 1016.9 - 0.0
25/04:30pm 28.1 23.8 0.8 17 13.2 SSE 13 20 7 11 1016.7 1015.9 0.0
25/04:00pm 28.6 23.9 1.2 17 13.4 SSE 15 24 8 13 1016.7 - 0.0
25/03:30pm 28.6 23.6 1.2 17 13.4 SE 17 24 9 13 1016.9 1016.1 0.0
25/03:00pm 28.1 23.4 0.8 17 13.2 ESE 15 26 8 14 1017.0 1016.2 0.0
25/02:30pm 28.4 23.5 1.8 18 13.1 SE 17 24 9 13 1017.4 1016.6 0.0
25/02:00pm 28.3 23.0 1.7 18 13.1 ESE 19 26 10 14 1017.9 - 0.0
25/01:30pm 27.2 21.7 1.6 19 12.5 SE 20 28 11 15 1018.3 1017.6 0.0
25/01:00pm 27.1 21.5 1.5 19 12.5 SE 20 30 11 16 1018.9 - 0.0
25/12:30pm 26.6 20.5 0.4 18 12.5 SE 22 32 12 17 1019.5 1018.7 0.0
25/12:00pm 25.6 19.9 0.3 19 11.9 SE 20 26 11 14 1020.0 1019.2 0.0
25/11:30am 24.6 18.8 0.2 20 11.4 ESE 20 28 11 15 1020.4 1019.7 0.0
25/11:00am 23.7 17.9 0.1 21 10.9 SE 20 26 11 14 1020.8 - 0.0
25/10:30am 22.0 16.9 0.5 24 9.9 SE 17 24 9 13 1021.0 1020.3 0.0
25/10:00am 20.5 14.4 0.4 26 9.1 SE 22 28 12 15 1020.8 - 0.0
25/09:30am 19.0 14.4 1.5 31 8.0 SE 15 20 8 11 1020.6 1019.9 0.0
25/09:00am 17.0 12.7 1.0 34 7.1 SSE 13 20 7 11 1019.9 1019.1 0.0
25/08:30am 14.3 11.3 1.9 43 5.5 SSW 7 11 4 6 1019.5 1018.7 0.0
25/08:00am 12.4 10.3 2.0 49 4.6 W 2 6 1 3 1019.0 - 0.0
25/07:30am 10.8 9.0 1.4 52 4.0 CALM 0 6 0 3 1018.5 1017.8 0.0
25/07:00am 12.0 8.3 2.2 51 4.3 S 11 13 6 7 1018.3 - 0.0
25/06:30am 11.7 8.4 2.5 53 4.0 S 9 11 5 6 1018.1 1017.4 0.0
25/06:00am 12.8 9.5 2.4 49 4.6 S 9 13 5 7 1017.7 1017.0 0.0
25/05:30am 11.0 9.0 2.3 55 3.8 S 2 7 1 4 1017.5 1016.7 0.0
25/05:00am 12.6 9.8 3.3 53 4.2 S 7 11 4 6 1017.2 - 0.0
25/04:30am 12.9 10.2 3.8 54 4.2 SSW 7 9 4 5 1017.2 1016.4 0.0
25/04:00am 12.0 9.5 4.0 58 3.7 SSW 6 7 3 4 1017.1 - 0.0
25/03:30am 12.5 9.8 3.7 55 4.0 WSW 7 7 4 4 1017.1 1016.3 0.0
25/03:00am 14.5 11.8 3.9 49 4.9 SSW 7 9 4 5 1016.9 1016.1 0.0
25/02:30am 15.9 12.9 4.3 46 5.5 S 9 11 5 6 1016.9 1016.1 0.0
25/02:00am 16.9 13.6 4.3 43 6.0 S 11 15 6 8 1016.9 - 0.0
25/01:30am 17.8 14.1 4.4 41 6.5 SSE 13 17 7 9 1016.9 1016.1 0.0
25/01:00am 18.4 14.3 4.6 40 6.7 S 15 20 8 11 1016.9 - 0.0
25/12:30am 19.0 15.3 4.4 38 7.1 S 13 19 7 10 1016.9 1016.1 0.0
25/12:00am 18.3 14.6 4.5 40 6.7 S 13 19 7 10 1016.7 1015.9 0.0
 
Date/Time
CST
Temp
°C
App
Temp
°C
Dew
Point
Rel
Hum
%
Delta-T
°C
Wind Press
QNH
hPa
Press
MSL
hPa
Rain
since 9 am
mm
Dir
 
Spd
km/h
Gust
km/h
Spd
kts
Gust
kts
24/11:30pm 14.7 11.5 3.2 46 5.3 S 9 17 5 9 1016.5 1015.7 0.0
24/11:00pm 14.5 11.7 2.1 43 5.6 S 6 7 3 4 1015.9 - 0.0
24/10:30pm 15.4 12.7 2.6 42 5.8 SSW 6 13 3 7 1015.8 1015.1 0.0
24/10:00pm 19.6 15.6 0.6 28 8.6 ENE 11 13 6 7 1015.6 - 0.0
24/09:30pm 18.7 15.1 0.3 29 8.2 E 9 11 5 6 1015.5 1014.8 0.0
24/09:00pm 20.8 16.6 1.6 28 9.0 ENE 13 15 7 8 1015.2 1014.5 0.0
24/08:30pm 19.8 16.0 1.7 30 8.4 ENE 11 13 6 7 1014.9 1014.2 0.0
24/08:00pm 19.6 16.1 1.1 29 8.5 E 9 11 5 6 1014.4 - 0.0
24/07:30pm 22.3 18.4 1.3 25 9.9 ENE 11 13 6 7 1014.1 1013.3 0.0
24/07:00pm 22.6 18.9 -0.2 22 10.4 E 9 13 5 7 1013.6 - 0.0
24/06:30pm 24.0 20.3 -0.3 20 11.2 ESE 9 11 5 6 1013.5 1012.7 0.0
24/06:00pm 27.8 23.9 -1.2 15 13.5 ESE 9 13 5 7 1013.5 1012.7 0.0
24/05:30pm 28.9 25.6 -1.2 14 14.2 SE 6 9 3 5 1013.5 1012.7 0.0
24/05:00pm 30.0 26.1 -1.4 13 14.9 E 9 13 5 7 1013.3 - 0.0
24/04:30pm 30.2 26.7 -1.2 13 14.9 N 7 11 4 6 1013.3 1012.5 0.0
24/04:00pm 30.4 27.5 -1.1 13 15.0 W 4 9 2 5 1013.3 - 0.0
24/03:30pm 29.6 26.2 -1.7 13 14.7 E 6 11 3 6 1013.3 1012.5 0.0
24/03:00pm 29.7 26.2 -1.6 13 14.7 SSW 7 13 4 7 1013.4 1012.6 0.0
24/02:30pm 29.4 25.4 -1.9 13 14.6 S 9 17 5 9 1013.7 1012.9 0.0
24/02:00pm 28.8 25.2 -2.3 13 14.4 W 7 15 4 8 1014.2 - 0.0
24/01:30pm 29.1 25.3 -1.1 14 14.3 SSW 9 13 5 7 1014.7 1013.9 0.0
24/01:00pm 29.1 25.1 -2.1 13 14.5 NNW 9 15 5 8 1015.2 - 0.0
24/12:30pm 28.3 24.4 -1.7 14 13.9 NNE 9 20 5 11 1015.8 1015.1 0.0
24/12:00pm 27.7 24.3 -0.4 16 13.3 ENE 7 13 4 7 1016.4 1015.6 0.0
24/11:30am 26.7 23.6 0.4 18 12.5 WNW 6 9 3 5 1016.7 1015.9 0.0
24/11:00am 25.5 22.6 1.6 21 11.5 SSE 6 11 3 6 1016.9 - 0.0
24/10:30am 24.4 21.7 3.7 26 10.3 ESE 7 9 4 5 1017.0 1016.2 0.0
24/10:00am 22.6 20.4 6.0 34 8.5 SE 7 9 4 5 1017.0 - 0.0
24/09:30am 20.4 18.1 5.6 38 7.4 SSE 7 9 4 5 1016.8 1016.0 0.0
24/09:00am 17.5 15.5 6.1 47 5.7 SSE 6 7 3 4 1016.7 1015.9 0.0
24/08:30am 15.1 12.6 4.5 49 5.0 S 7 9 4 5 1016.5 1015.7 0.0
24/08:00am 12.2 10.4 3.7 56 3.9 SSW 2 6 1 3 1016.0 - 0.0
24/07:30am 9.9 7.2 2.5 60 3.2 SW 6 7 3 4 1015.7 1015.0 0.0
24/07:00am 10.8 8.1 3.6 61 3.2 SW 7 11 4 6 1015.3 - 0.0
24/06:30am 9.4 6.9 3.8 68 2.5 W 6 7 3 4 1015.0 1014.3 0.0
24/06:00am 9.6 6.9 2.5 61 3.1 W 6 9 3 5 1014.7 1013.9 0.0
24/05:30am 10.9 9.0 3.0 58 3.5 NNW 2 9 1 5 1014.3 1013.5 0.0
24/05:00am 11.6 8.5 3.4 57 3.7 NNW 9 11 5 6 1014.1 - 0.0
24/04:30am 12.2 9.0 3.2 54 4.0 N 9 11 5 6 1014.0 1013.2 0.0
24/04:00am 12.6 9.8 3.0 52 4.3 NNW 7 9 4 5 1013.9 - 0.0
24/03:30am 13.0 10.2 2.3 48 4.7 NW 6 7 3 4 1014.0 1013.2 0.0
24/03:00am 13.9 11.6 2.8 47 5.0 WSW 4 7 2 4 1014.1 1013.3 0.0
24/02:30am 13.7 11.1 3.2 49 4.8 SSW 6 7 3 4 1014.1 1013.3 0.0
24/02:00am 13.4 10.7 3.8 52 4.4 S 7 9 4 5 1014.2 - 0.0
24/01:30am 12.0 10.3 1.9 50 4.4 CALM 0 0 0 0 1014.3 1013.5 0.0
24/01:00am 13.7 11.7 2.3 46 5.1 WNW 2 7 1 4 1014.4 - 0.0
24/12:30am 14.4 12.8 2.3 44 5.4 CALM 0 0 0 0 1014.5 1013.7 0.0
24/12:00am 14.4 12.9 2.9 46 5.2 CALM 0 0 0 0 1014.5 1013.7 0.0
 
Date/Time
CST
Temp
°C
App
Temp
°C
Dew
Point
Rel
Hum
%
Delta-T
°C
Wind Press
QNH
hPa
Press
MSL
hPa
Rain
since 9 am
mm
Dir
 
Spd
km/h
Gust
km/h
Spd
kts
Gust
kts
23/11:30pm 13.5 11.7 1.5 44 5.3 CALM 0 0 0 0 1014.8 1014.0 0.0
23/11:00pm 14.4 12.6 1.3 41 5.8 CALM 0 0 0 0 1014.7 - 0.0
23/10:30pm 15.3 13.5 1.1 38 6.3 CALM 0 2 0 1 1014.7 1013.9 0.0
23/10:00pm 17.9 14.2 0.1 30 7.9 ENE 9 11 5 6 1014.6 - 0.0
23/09:30pm 19.9 15.5 0.4 27 8.8 ENE 13 13 7 7 1014.5 1013.7 0.0
23/09:00pm 19.8 15.4 0.3 27 8.8 ENE 13 13 7 7 1014.3 1013.5 0.0
23/08:30pm 20.4 16.4 0.8 27 9.0 ENE 11 13 6 7 1014.1 1013.3 0.0
23/08:00pm 19.6 15.9 0.1 27 8.7 ENE 9 11 5 6 1014.0 - 0.0
23/07:30pm 21.1 17.1 0.3 25 9.5 E 11 13 6 7 1013.7 1012.9 0.0
23/07:00pm 22.4 18.8 0.3 23 10.2 E 9 9 5 5 1013.4 - 0.0
23/06:30pm 24.1 20.7 -0.9 19 11.4 E 7 9 4 5 1013.2 1012.4 0.0
23/06:00pm 27.3 23.8 -1.6 15 13.4 E 7 9 4 5 1013.1 1012.3 0.0
23/05:30pm 29.0 25.6 -2.2 13 14.5 SE 6 9 3 5 1012.9 1012.1 0.0
23/05:00pm 29.3 25.9 -1.9 13 14.6 ESE 6 7 3 4 1012.8 - 0.0
23/04:30pm 29.3 25.7 -1.9 13 14.6 ESE 7 11 4 6 1012.8 1012.0 0.0
23/04:00pm 30.0 26.0 -2.5 12 15.1 NNW 9 11 5 6 1012.8 - 0.0
23/03:30pm 29.9 26.2 -2.6 12 15.1 WSW 7 15 4 8 1012.8 1012.0 0.0
23/03:00pm 29.8 25.8 -2.6 12 15.0 WSW 9 15 5 8 1013.0 1012.2 0.0
23/02:30pm 29.5 25.6 -1.8 13 14.7 WNW 9 15 5 8 1013.3 1012.5 0.0
23/02:00pm 29.8 25.9 -1.5 13 14.8 N 9 19 5 10 1013.8 - 0.0
23/01:30pm 29.6 26.1 -1.7 13 14.7 W 7 17 4 9 1014.3 1013.5 0.0
23/01:00pm 28.9 24.5 -2.3 13 14.4 NNE 11 19 6 10 1014.9 - 0.0
23/12:30pm 28.6 24.3 -1.5 14 14.1 NNW 11 19 6 10 1015.4 1014.7 0.0
23/12:00pm 27.7 22.9 -2.2 14 13.7 N 13 20 7 11 1016.3 1015.5 0.0
23/11:30am 27.3 22.9 0.1 17 12.9 N 13 17 7 9 1016.7 1015.9 0.0
23/11:00am 26.3 21.5 0.1 18 12.4 N 15 20 8 11 1017.1 - 0.0
23/10:30am 24.9 20.3 -1.0 18 11.9 N 13 20 7 11 1017.5 1016.7 0.0

Other Formats:

Comma delimited format used in spreadsheet applications
http://www.bom.gov.au/fwo/IDD60801/IDD60801.94231.axf

JavaScript Object Notation format (JSON) in row-major order
http://www.bom.gov.au/fwo/IDD60801/IDD60801.94231.json